• location
  • image
mod_vvisit_countermod_vvisit_countermod_vvisit_countermod_vvisit_countermod_vvisit_countermod_vvisit_counter
mod_vvisit_counterToday935
mod_vvisit_counterYesterday1401
mod_vvisit_counterThis week4240
mod_vvisit_counterLast week7395
mod_vvisit_counterThis month20034
mod_vvisit_counterLast month21779
mod_vvisit_counterAll days561890

We have: 13 guests online
Your IP: 54.161.178.52
 , 
Today: Feb 23, 2017
Airport / Company / List of services

List of services

  

Services of Siauliai International Airport:

 

Leading (follow me)

Ground services

Aircraft loading/unloading

Aircraft parking

Aircraft security

Aircraft fuel supply

Passenger baggage service

Business class passenger service

Submission of information to passengers

Serving meals to passengers and crew

Additional services for aircraft crewmembers

Aviation Security

Dining Cafe

First medical aid

Hotel reservations

Transporting crew to/from the city

Taxi booking 

Border procedures

Customs procedures

 

Today

Thursday, 23 February 2017

Weather Forecast

Siauliai °C
   

Aviation Weather Forecast

[source: ADDS]
METAR
EYSA 232020Z 23005KT CAVOK M00/M01 Q0988 R32R/29//95 R32L/29//95 BLU NOSIG =
TAF
TAF EYSA 232000Z 2321/2406 VRB04KT 6000 SCT010 BKN015 TEMPO 2321/2324 3000 SN BR SCT005 BKN010 BECMG 2400/2401 08014KT 1500 SN BR OVC005 TEMPO 2401/2406 0800 +SN OVC002 =
SR / SS: 05:30 / 15:52 UTC (EYSA 2017-02-23)

Search

Who's Online

We have 13 guests online

tic logo en